Skip to main content

NOAA/GLERL Met Station at Chicago, IL

Previous 3 Hours (2 minute increments)
See also Previous 5 Days (top of hour)
Jump down to Data
Switch to [English][Metric]
Zoom: Click and drag, Pan: shift-click and drag, Unzoom: double-click, Unzoom All




See also 1-day windrose plot


NOAA/GLERL Met Station at Chicago, IL

Previous 3 Hours (2 minute increments)
See also Previous 5 Days (top of hour only)
Jump up to Graphs
Switch to [English][Metric]
                  Wind  Wind  Wind   Air   Dew   Rel
                   Spd   Gst   Dir  Temp    Pt   Hum
YYYY-MM-DD   CDT   kts   kts   deg     F     F     %
2021-08-02 09:50   8.4  10.5   154  70.7  52.6  52.2
2021-08-02 09:48   9.5  10.5   169  70.7  52.7  52.4
2021-08-02 09:46   8.6  10.1   165  70.7  52.9  52.8
2021-08-02 09:44   8.4  10.3   169  70.5  52.8  53.0
2021-08-02 09:42   6.2   9.1   159  70.5  54.2  55.7
2021-08-02 09:40   7.8   8.9   165  70.3  54.0  55.7
2021-08-02 09:38   8.4  10.3   170  70.3  54.1  55.8
2021-08-02 09:36   8.6  10.1   167  70.2  53.2  54.4
2021-08-02 09:34   7.2   9.5   166  70.3  54.3  56.3
2021-08-02 09:32   7.4   9.1   171  70.5  54.8  57.1
2021-08-02 09:30   8.0   8.9   168  70.3  53.5  54.7
2021-08-02 09:28   8.4   9.3   172  70.3  53.5  54.6
2021-08-02 09:26   8.6   9.5   176  70.3  53.2  54.1
2021-08-02 09:24   8.4   9.1   179  70.2  54.3  56.6
2021-08-02 09:22   8.2   9.5   173  70.0  54.5  57.4
2021-08-02 09:20   8.2   9.9   171  70.0  54.4  57.3
2021-08-02 09:18   8.6  10.1   174  70.0  54.1  56.5
2021-08-02 09:16   7.8   9.1   178  70.0  54.2  56.9
2021-08-02 09:14   8.6   9.1   178  70.2  54.3  56.6
2021-08-02 09:12   7.8   9.9   180  70.0  55.2  59.0
2021-08-02 09:10   8.2   9.1   173  70.0  55.1  58.8
2021-08-02 09:08   8.0   8.6   185  70.0  53.4  55.2
2021-08-02 09:06   8.2   9.3   182  70.0  53.5  55.3
2021-08-02 09:04   8.4   9.5   178  70.0  53.2  54.8
2021-08-02 09:02   7.6   8.9   181  70.0  53.9  56.2
2021-08-02 09:00   8.2   9.7   181  69.8  54.3  57.4
2021-08-02 08:58   7.6   8.6   194  69.6  54.1  57.4
2021-08-02 08:56   7.8   8.9   185  69.6  54.0  57.1
2021-08-02 08:54   8.4   9.3   192  69.4  53.5  56.4
2021-08-02 08:52   8.2   9.9   187  69.4  54.2  57.8
2021-08-02 08:50   8.6   9.9   190  69.3  53.6  56.9
2021-08-02 08:48   8.4   9.5   193  69.1  54.0  58.2
2021-08-02 08:46   8.9   9.3   194  69.1  53.7  57.6
2021-08-02 08:44   8.4   9.1   194  69.3  54.3  58.4
2021-08-02 08:42   9.1   9.9   193  69.1  54.3  58.8
2021-08-02 08:40   8.0   8.7   198  69.1  55.4  61.3
2021-08-02 08:38   8.6   9.3   195  69.1  55.0  60.3
2021-08-02 08:36   9.1   9.9   193  69.3  54.9  59.8
2021-08-02 08:34   8.6   9.3   194  69.1  55.3  61.0
2021-08-02 08:32   8.7   9.7   192  69.1  55.2  60.9
2021-08-02 08:30   8.9   9.5   192  69.3  55.3  60.6
2021-08-02 08:28   8.7  10.3   190  69.3  55.1  60.3
2021-08-02 08:26   9.5   9.9   186  69.3  54.6  59.2
2021-08-02 08:24   8.9   9.5   192  69.1  55.0  60.3
2021-08-02 08:22   8.9   9.7   192  69.1  54.8  59.9
2021-08-02 08:20   7.6   8.4   186  69.1  56.2  63.1
2021-08-02 08:18   8.6   9.1   189  69.1  55.1  60.5
2021-08-02 08:16   7.6   8.6   189  68.9  57.0  65.3
2021-08-02 08:14   8.2   9.5   194  68.9  56.0  63.0
2021-08-02 08:12   8.9   9.5   181  68.9  55.2  61.2
2021-08-02 08:10   9.3  10.1   188  68.9  55.7  62.3
2021-08-02 08:08   9.9  11.3   185  68.9  54.7  60.1
2021-08-02 08:06  10.1  10.7   188  68.9  55.2  61.1
2021-08-02 08:04   9.5  10.3   187  68.9  54.6  59.9
2021-08-02 08:02   8.4   9.3   184  69.1  55.9  62.3
2021-08-02 08:00   9.5  10.3   186  68.9  55.2  61.2
2021-08-02 07:58   8.9  10.1   186  68.9  56.1  63.2
2021-08-02 07:56   8.9  10.7   183  68.7  55.5  62.3
2021-08-02 07:54   9.1  10.1   186  68.7  55.8  63.0
2021-08-02 07:52   8.0   9.1   182  68.7  56.4  64.4
2021-08-02 07:50   8.7   9.3   184  68.7  57.0  65.9
2021-08-02 07:48   8.4   9.3   185  68.7  57.0  65.9
2021-08-02 07:46   8.6  10.3   190  68.7  58.0  68.3
2021-08-02 07:44   8.6   9.1   188  68.7  57.9  68.0
2021-08-02 07:42   8.2   8.9   184  68.7  57.8  67.7
2021-08-02 07:40   8.2   9.7   178  68.7  57.8  67.8
2021-08-02 07:38   8.4   9.3   182  68.7  57.8  67.8
2021-08-02 07:36   8.2   8.9   180  68.7  57.9  68.0
2021-08-02 07:34   8.2   8.7   179  68.7  57.8  67.7
2021-08-02 07:32   6.8   9.1   179  68.5  58.3  69.5
2021-08-02 07:30   8.2   9.1   180  68.4  58.6  70.7
2021-08-02 07:28   7.2   8.7   175  68.4  58.3  69.8
2021-08-02 07:26   8.0   9.7   176  68.4  58.0  69.0
2021-08-02 07:24   8.7   9.3   185  68.4  57.9  68.9
2021-08-02 07:22   8.9   9.5   189  68.4  58.2  69.5
2021-08-02 07:20   8.2   9.7   185  68.7  58.4  69.3
2021-08-02 07:18   8.6   9.3   187  68.7  58.0  68.3
2021-08-02 07:16   8.9  10.5   179  68.7  57.9  68.1
2021-08-02 07:14   9.3  11.1   176  68.7  57.5  67.0
2021-08-02 07:12   9.9  10.9   186  68.7  57.8  67.7
2021-08-02 07:10   9.7  10.7   187  68.5  58.8  70.8
2021-08-02 07:08   9.1  10.1   185  68.5  59.1  71.5
2021-08-02 07:06   8.9  10.3   186  68.5  59.2  71.6
2021-08-02 07:04   9.3  10.9   185  68.5  59.5  72.4
2021-08-02 07:02   9.5  10.9   179  68.5  59.3  72.1
2021-08-02 07:00   9.3  10.1   189  68.5  60.1  74.0
2021-08-02 06:58   9.5  10.7   181  68.4  59.4  72.6
2021-08-02 06:56   9.7  10.9   180  68.4  59.6  73.2
2021-08-02 06:54   9.3  10.3   180  68.4  59.4  72.8
2021-08-02 06:52   8.9  10.1   181  68.4  59.9  73.9
2021-08-02 06:50   8.7   9.5   189  68.2  59.7  73.9